sensor_id;sensor_type;location;lat;lon;timestamp;P1;durP1;ratioP1;P2;durP2;ratioP2
47669;SDS011;33408;52.062;11.722;2023-03-16T00:01:49;9.68;;;3.08;;
47669;SDS011;33408;52.062;11.722;2023-03-16T00:04:15;8.77;;;3.38;;
47669;SDS011;33408;52.062;11.722;2023-03-16T00:06:43;8.20;;;2.58;;
47669;SDS011;33408;52.062;11.722;2023-03-16T00:09:10;8.65;;;3.05;;
47669;SDS011;33408;52.062;11.722;2023-03-16T00:11:37;10.07;;;2.80;;
47669;SDS011;33408;52.062;11.722;2023-03-16T00:14:04;14.18;;;4.10;;
47669;SDS011;33408;52.062;11.722;2023-03-16T00:16:30;12.57;;;3.38;;
47669;SDS011;33408;52.062;11.722;2023-03-16T00:18:57;11.10;;;3.10;;
47669;SDS011;33408;52.062;11.722;2023-03-16T00:21:24;9.98;;;3.28;;
47669;SDS011;33408;52.062;11.722;2023-03-16T00:23:52;6.95;;;3.30;;
47669;SDS011;33408;52.062;11.722;2023-03-16T00:26:18;13.50;;;3.55;;
47669;SDS011;33408;52.062;11.722;2023-03-16T00:28:46;11.52;;;2.75;;
47669;SDS011;33408;52.062;11.722;2023-03-16T00:31:13;8.93;;;3.05;;
47669;SDS011;33408;52.062;11.722;2023-03-16T00:33:39;10.65;;;3.45;;
47669;SDS011;33408;52.062;11.722;2023-03-16T00:36:08;11.02;;;3.78;;
47669;SDS011;33408;52.062;11.722;2023-03-16T00:38:36;11.95;;;4.00;;
47669;SDS011;33408;52.062;11.722;2023-03-16T00:41:06;9.68;;;3.60;;
47669;SDS011;33408;52.062;11.722;2023-03-16T00:43:34;9.68;;;3.55;;
47669;SDS011;33408;52.062;11.722;2023-03-16T00:46:05;9.35;;;3.30;;
47669;SDS011;33408;52.062;11.722;2023-03-16T00:48:32;8.05;;;3.00;;
47669;SDS011;33408;52.062;11.722;2023-03-16T00:50:59;12.05;;;3.60;;
47669;SDS011;33408;52.062;11.722;2023-03-16T00:53:26;10.48;;;3.50;;
47669;SDS011;33408;52.062;11.722;2023-03-16T00:55:53;10.73;;;4.05;;
47669;SDS011;33408;52.062;11.722;2023-03-16T00:58:21;9.50;;;3.55;;
47669;SDS011;33408;52.062;11.722;2023-03-16T01:00:48;10.45;;;3.38;;
47669;SDS011;33408;52.062;11.722;2023-03-16T01:03:17;7.75;;;3.35;;
47669;SDS011;33408;52.062;11.722;2023-03-16T01:05:43;11.23;;;3.30;;
47669;SDS011;33408;52.062;11.722;2023-03-16T01:08:10;9.00;;;3.17;;
47669;SDS011;33408;52.062;11.722;2023-03-16T01:10:37;11.45;;;3.67;;
47669;SDS011;33408;52.062;11.722;2023-03-16T01:13:04;10.77;;;4.85;;
47669;SDS011;33408;52.062;11.722;2023-03-16T01:15:33;14.90;;;5.57;;
47669;SDS011;33408;52.062;11.722;2023-03-16T01:17:59;8.35;;;4.30;;
47669;SDS011;33408;52.062;11.722;2023-03-16T01:20:26;9.88;;;4.30;;
47669;SDS011;33408;52.062;11.722;2023-03-16T01:22:53;8.82;;;4.20;;
47669;SDS011;33408;52.062;11.722;2023-03-16T01:25:20;10.00;;;3.50;;
47669;SDS011;33408;52.062;11.722;2023-03-16T01:27:48;12.50;;;3.72;;
47669;SDS011;33408;52.062;11.722;2023-03-16T01:30:14;10.63;;;3.50;;
47669;SDS011;33408;52.062;11.722;2023-03-16T01:32:42;8.70;;;3.28;;
47669;SDS011;33408;52.062;11.722;2023-03-16T01:35:09;9.60;;;3.17;;
47669;SDS011;33408;52.062;11.722;2023-03-16T01:37:36;7.78;;;3.33;;
47669;SDS011;33408;52.062;11.722;2023-03-16T01:40:03;10.38;;;3.50;;
47669;SDS011;33408;52.062;11.722;2023-03-16T01:42:31;10.43;;;3.78;;
47669;SDS011;33408;52.062;11.722;2023-03-16T01:44:58;7.65;;;3.33;;
47669;SDS011;33408;52.062;11.722;2023-03-16T01:47:29;10.82;;;3.03;;
47669;SDS011;33408;52.062;11.722;2023-03-16T01:50:03;8.93;;;3.88;;
47669;SDS011;33408;52.062;11.722;2023-03-16T01:52:31;11.63;;;3.55;;
47669;SDS011;33408;52.062;11.722;2023-03-16T01:55:02;11.20;;;3.65;;
47669;SDS011;33408;52.062;11.722;2023-03-16T01:57:32;7.80;;;3.17;;
47669;SDS011;33408;52.062;11.722;2023-03-16T02:00:03;7.93;;;3.17;;
47669;SDS011;33408;52.062;11.722;2023-03-16T02:02:34;10.05;;;3.15;;
47669;SDS011;33408;52.062;11.722;2023-03-16T02:05:05;9.15;;;3.90;;
47669;SDS011;33408;52.062;11.722;2023-03-16T02:07:39;5.60;;;2.60;;
47669;SDS011;33408;52.062;11.722;2023-03-16T02:10:08;12.85;;;3.20;;
47669;SDS011;33408;52.062;11.722;2023-03-16T02:12:37;9.93;;;4.05;;
47669;SDS011;33408;52.062;11.722;2023-03-16T02:15:04;7.03;;;3.00;;
47669;SDS011;33408;52.062;11.722;2023-03-16T02:17:32;12.95;;;3.53;;
47669;SDS011;33408;52.062;11.722;2023-03-16T02:20:07;9.00;;;3.28;;
47669;SDS011;33408;52.062;11.722;2023-03-16T02:22:41;9.25;;;3.90;;
47669;SDS011;33408;52.062;11.722;2023-03-16T02:25:11;10.75;;;3.25;;
47669;SDS011;33408;52.062;11.722;2023-03-16T02:27:42;12.98;;;3.65;;
47669;SDS011;33408;52.062;11.722;2023-03-16T02:32:47;11.05;;;4.00;;
47669;SDS011;33408;52.062;11.722;2023-03-16T02:35:17;10.57;;;3.13;;
47669;SDS011;33408;52.062;11.722;2023-03-16T02:37:44;7.63;;;3.17;;
47669;SDS011;33408;52.062;11.722;2023-03-16T02:40:15;8.77;;;3.63;;
47669;SDS011;33408;52.062;11.722;2023-03-16T02:42:46;10.98;;;3.20;;
47669;SDS011;33408;52.062;11.722;2023-03-16T02:45:20;9.60;;;3.72;;
47669;SDS011;33408;52.062;11.722;2023-03-16T02:47:47;9.25;;;3.95;;
47669;SDS011;33408;52.062;11.722;2023-03-16T02:50:17;9.35;;;3.80;;
47669;SDS011;33408;52.062;11.722;2023-03-16T02:52:44;8.13;;;3.33;;
47669;SDS011;33408;52.062;11.722;2023-03-16T02:55:12;9.32;;;3.70;;
47669;SDS011;33408;52.062;11.722;2023-03-16T02:57:39;9.70;;;3.85;;
47669;SDS011;33408;52.062;11.722;2023-03-16T03:00:06;12.00;;;3.60;;
47669;SDS011;33408;52.062;11.722;2023-03-16T03:05:06;11.38;;;3.63;;
47669;SDS011;33408;52.062;11.722;2023-03-16T03:07:33;10.10;;;3.65;;
47669;SDS011;33408;52.062;11.722;2023-03-16T03:09:59;10.63;;;4.57;;
47669;SDS011;33408;52.062;11.722;2023-03-16T03:12:30;8.98;;;3.95;;
47669;SDS011;33408;52.062;11.722;2023-03-16T03:14:56;12.05;;;3.97;;
47669;SDS011;33408;52.062;11.722;2023-03-16T03:17:23;11.70;;;4.05;;
47669;SDS011;33408;52.062;11.722;2023-03-16T03:19:56;10.85;;;3.83;;
47669;SDS011;33408;52.062;11.722;2023-03-16T03:22:23;10.35;;;3.42;;
47669;SDS011;33408;52.062;11.722;2023-03-16T03:24:50;12.77;;;3.75;;
47669;SDS011;33408;52.062;11.722;2023-03-16T03:27:17;8.30;;;3.35;;
47669;SDS011;33408;52.062;11.722;2023-03-16T03:29:44;11.07;;;3.45;;
47669;SDS011;33408;52.062;11.722;2023-03-16T03:32:11;7.72;;;3.28;;
47669;SDS011;33408;52.062;11.722;2023-03-16T03:34:38;10.20;;;3.40;;
47669;SDS011;33408;52.062;11.722;2023-03-16T03:37:07;12.38;;;3.88;;
47669;SDS011;33408;52.062;11.722;2023-03-16T03:39:34;8.18;;;3.17;;
47669;SDS011;33408;52.062;11.722;2023-03-16T03:42:03;7.70;;;2.80;;
47669;SDS011;33408;52.062;11.722;2023-03-16T03:44:30;9.80;;;3.33;;
47669;SDS011;33408;52.062;11.722;2023-03-16T03:46:58;9.70;;;3.20;;
47669;SDS011;33408;52.062;11.722;2023-03-16T03:49:25;8.48;;;2.92;;
47669;SDS011;33408;52.062;11.722;2023-03-16T03:51:52;16.20;;;3.22;;
47669;SDS011;33408;52.062;11.722;2023-03-16T03:54:21;10.50;;;3.47;;
47669;SDS011;33408;52.062;11.722;2023-03-16T03:56:47;8.13;;;3.00;;
47669;SDS011;33408;52.062;11.722;2023-03-16T03:59:14;5.95;;;2.55;;
47669;SDS011;33408;52.062;11.722;2023-03-16T04:01:40;7.93;;;2.70;;
47669;SDS011;33408;52.062;11.722;2023-03-16T04:04:07;8.30;;;2.90;;
47669;SDS011;33408;52.062;11.722;2023-03-16T04:06:33;9.20;;;2.95;;
47669;SDS011;33408;52.062;11.722;2023-03-16T04:09:00;9.00;;;2.95;;
47669;SDS011;33408;52.062;11.722;2023-03-16T04:11:28;8.05;;;3.22;;
47669;SDS011;33408;52.062;11.722;2023-03-16T04:13:55;9.70;;;3.13;;
47669;SDS011;33408;52.062;11.722;2023-03-16T04:16:21;7.88;;;2.95;;
47669;SDS011;33408;52.062;11.722;2023-03-16T04:18:50;9.00;;;3.05;;
47669;SDS011;33408;52.062;11.722;2023-03-16T04:21:18;6.35;;;2.58;;
47669;SDS011;33408;52.062;11.722;2023-03-16T04:23:45;8.82;;;3.47;;
47669;SDS011;33408;52.062;11.722;2023-03-16T04:26:12;10.30;;;2.72;;
47669;SDS011;33408;52.062;11.722;2023-03-16T04:28:40;8.52;;;2.65;;
47669;SDS011;33408;52.062;11.722;2023-03-16T04:31:07;8.00;;;2.67;;
47669;SDS011;33408;52.062;11.722;2023-03-16T04:33:35;9.75;;;3.05;;
47669;SDS011;33408;52.062;11.722;2023-03-16T04:36:04;8.73;;;2.78;;
47669;SDS011;33408;52.062;11.722;2023-03-16T04:38:33;10.93;;;3.22;;
47669;SDS011;33408;52.062;11.722;2023-03-16T04:40:59;7.50;;;3.03;;
47669;SDS011;33408;52.062;11.722;2023-03-16T04:43:26;7.28;;;2.70;;
47669;SDS011;33408;52.062;11.722;2023-03-16T04:45:54;10.60;;;3.53;;
47669;SDS011;33408;52.062;11.722;2023-03-16T04:48:21;8.18;;;3.28;;
47669;SDS011;33408;52.062;11.722;2023-03-16T04:50:49;9.07;;;3.30;;
47669;SDS011;33408;52.062;11.722;2023-03-16T04:53:16;8.60;;;3.42;;
47669;SDS011;33408;52.062;11.722;2023-03-16T04:55:43;7.57;;;3.10;;
47669;SDS011;33408;52.062;11.722;2023-03-16T04:58:09;12.85;;;4.03;;
47669;SDS011;33408;52.062;11.722;2023-03-16T05:00:37;9.07;;;3.45;;
47669;SDS011;33408;52.062;11.722;2023-03-16T05:03:06;10.15;;;4.03;;
47669;SDS011;33408;52.062;11.722;2023-03-16T05:05:34;11.60;;;3.97;;
47669;SDS011;33408;52.062;11.722;2023-03-16T05:08:00;9.38;;;3.92;;
47669;SDS011;33408;52.062;11.722;2023-03-16T05:10:30;10.35;;;3.50;;
47669;SDS011;33408;52.062;11.722;2023-03-16T05:12:57;11.70;;;3.85;;
47669;SDS011;33408;52.062;11.722;2023-03-16T05:15:24;13.57;;;4.07;;
47669;SDS011;33408;52.062;11.722;2023-03-16T05:17:51;9.80;;;3.42;;
47669;SDS011;33408;52.062;11.722;2023-03-16T05:20:21;9.50;;;3.45;;
47669;SDS011;33408;52.062;11.722;2023-03-16T05:22:48;13.43;;;3.83;;
47669;SDS011;33408;52.062;11.722;2023-03-16T05:25:16;10.90;;;4.68;;
47669;SDS011;33408;52.062;11.722;2023-03-16T05:27:44;15.02;;;7.20;;
47669;SDS011;33408;52.062;11.722;2023-03-16T05:30:12;14.52;;;7.63;;
47669;SDS011;33408;52.062;11.722;2023-03-16T05:32:41;15.30;;;9.93;;
47669;SDS011;33408;52.062;11.722;2023-03-16T05:35:08;19.95;;;8.52;;
47669;SDS011;33408;52.062;11.722;2023-03-16T05:37:38;12.55;;;6.57;;
47669;SDS011;33408;52.062;11.722;2023-03-16T05:40:06;19.52;;;5.70;;
47669;SDS011;33408;52.062;11.722;2023-03-16T05:42:40;9.35;;;4.70;;
47669;SDS011;33408;52.062;11.722;2023-03-16T05:45:08;11.48;;;4.28;;
47669;SDS011;33408;52.062;11.722;2023-03-16T05:47:35;10.50;;;3.58;;
47669;SDS011;33408;52.062;11.722;2023-03-16T05:50:02;10.00;;;3.72;;
47669;SDS011;33408;52.062;11.722;2023-03-16T05:52:29;11.18;;;4.57;;
47669;SDS011;33408;52.062;11.722;2023-03-16T05:54:57;12.45;;;4.80;;
47669;SDS011;33408;52.062;11.722;2023-03-16T05:57:24;9.70;;;3.95;;
47669;SDS011;33408;52.062;11.722;2023-03-16T05:59:50;13.23;;;4.25;;
47669;SDS011;33408;52.062;11.722;2023-03-16T06:02:17;13.43;;;4.63;;
47669;SDS011;33408;52.062;11.722;2023-03-16T06:04:44;13.10;;;4.15;;
47669;SDS011;33408;52.062;11.722;2023-03-16T06:07:11;13.73;;;6.97;;
47669;SDS011;33408;52.062;11.722;2023-03-16T06:09:37;17.60;;;11.73;;
47669;SDS011;33408;52.062;11.722;2023-03-16T06:12:07;17.10;;;6.57;;
47669;SDS011;33408;52.062;11.722;2023-03-16T06:14:34;8.85;;;4.30;;
47669;SDS011;33408;52.062;11.722;2023-03-16T06:17:00;11.45;;;4.95;;
47669;SDS011;33408;52.062;11.722;2023-03-16T06:19:27;13.07;;;8.68;;
47669;SDS011;33408;52.062;11.722;2023-03-16T06:21:54;11.98;;;6.72;;
47669;SDS011;33408;52.062;11.722;2023-03-16T06:24:21;11.40;;;5.85;;
47669;SDS011;33408;52.062;11.722;2023-03-16T06:26:47;13.35;;;6.13;;
47669;SDS011;33408;52.062;11.722;2023-03-16T06:29:15;13.00;;;7.65;;
47669;SDS011;33408;52.062;11.722;2023-03-16T06:31:42;13.65;;;7.60;;
47669;SDS011;33408;52.062;11.722;2023-03-16T06:34:08;12.50;;;6.25;;
47669;SDS011;33408;52.062;11.722;2023-03-16T06:36:35;22.35;;;12.02;;
47669;SDS011;33408;52.062;11.722;2023-03-16T06:39:03;20.88;;;10.55;;
47669;SDS011;33408;52.062;11.722;2023-03-16T06:41:30;17.73;;;5.75;;
47669;SDS011;33408;52.062;11.722;2023-03-16T06:43:57;12.13;;;4.57;;
47669;SDS011;33408;52.062;11.722;2023-03-16T06:46:25;13.30;;;4.95;;
47669;SDS011;33408;52.062;11.722;2023-03-16T06:48:52;9.57;;;5.03;;
47669;SDS011;33408;52.062;11.722;2023-03-16T06:51:19;13.63;;;5.28;;
47669;SDS011;33408;52.062;11.722;2023-03-16T06:53:45;12.95;;;6.10;;
47669;SDS011;33408;52.062;11.722;2023-03-16T06:56:12;11.82;;;5.93;;
47669;SDS011;33408;52.062;11.722;2023-03-16T06:58:38;10.50;;;5.00;;
47669;SDS011;33408;52.062;11.722;2023-03-16T07:01:05;14.93;;;5.90;;
47669;SDS011;33408;52.062;11.722;2023-03-16T07:03:33;13.02;;;5.40;;
47669;SDS011;33408;52.062;11.722;2023-03-16T07:06:00;9.75;;;5.43;;
47669;SDS011;33408;52.062;11.722;2023-03-16T07:08:27;13.80;;;5.47;;
47669;SDS011;33408;52.062;11.722;2023-03-16T07:10:53;10.90;;;5.25;;
47669;SDS011;33408;52.062;11.722;2023-03-16T07:13:20;11.70;;;5.80;;
47669;SDS011;33408;52.062;11.722;2023-03-16T07:15:48;12.40;;;6.13;;
47669;SDS011;33408;52.062;11.722;2023-03-16T07:18:16;15.00;;;6.47;;
47669;SDS011;33408;52.062;11.722;2023-03-16T07:20:44;13.07;;;5.25;;
47669;SDS011;33408;52.062;11.722;2023-03-16T07:23:11;10.32;;;5.35;;
47669;SDS011;33408;52.062;11.722;2023-03-16T07:25:38;13.93;;;5.90;;
47669;SDS011;33408;52.062;11.722;2023-03-16T07:28:04;13.05;;;6.18;;
47669;SDS011;33408;52.062;11.722;2023-03-16T07:30:31;14.57;;;6.00;;
47669;SDS011;33408;52.062;11.722;2023-03-16T07:32:57;12.23;;;5.30;;
47669;SDS011;33408;52.062;11.722;2023-03-16T07:35:24;11.50;;;5.60;;
47669;SDS011;33408;52.062;11.722;2023-03-16T07:37:52;10.90;;;5.35;;
47669;SDS011;33408;52.062;11.722;2023-03-16T07:40:19;11.95;;;5.53;;
47669;SDS011;33408;52.062;11.722;2023-03-16T07:42:46;11.30;;;4.68;;
47669;SDS011;33408;52.062;11.722;2023-03-16T07:45:13;12.73;;;5.97;;
47669;SDS011;33408;52.062;11.722;2023-03-16T07:47:41;12.43;;;5.82;;
47669;SDS011;33408;52.062;11.722;2023-03-16T07:50:11;9.65;;;5.63;;
47669;SDS011;33408;52.062;11.722;2023-03-16T07:52:40;11.18;;;5.05;;
47669;SDS011;33408;52.062;11.722;2023-03-16T07:55:08;11.07;;;5.95;;
47669;SDS011;33408;52.062;11.722;2023-03-16T07:57:35;12.45;;;5.60;;
47669;SDS011;33408;52.062;11.722;2023-03-16T08:00:03;12.63;;;5.32;;
47669;SDS011;33408;52.062;11.722;2023-03-16T08:02:31;12.38;;;5.30;;
47669;SDS011;33408;52.062;11.722;2023-03-16T08:04:58;13.18;;;4.78;;
47669;SDS011;33408;52.062;11.722;2023-03-16T08:07:25;13.35;;;5.15;;
47669;SDS011;33408;52.062;11.722;2023-03-16T08:09:51;11.35;;;5.32;;
47669;SDS011;33408;52.062;11.722;2023-03-16T08:12:20;10.48;;;5.25;;
47669;SDS011;33408;52.062;11.722;2023-03-16T08:14:46;11.23;;;5.68;;
47669;SDS011;33408;52.062;11.722;2023-03-16T08:17:13;12.82;;;5.03;;
47669;SDS011;33408;52.062;11.722;2023-03-16T08:19:40;12.18;;;5.43;;
47669;SDS011;33408;52.062;11.722;2023-03-16T08:22:06;10.55;;;4.78;;
47669;SDS011;33408;52.062;11.722;2023-03-16T08:24:33;16.77;;;5.15;;
47669;SDS011;33408;52.062;11.722;2023-03-16T08:26:59;16.42;;;5.60;;
47669;SDS011;33408;52.062;11.722;2023-03-16T08:29:27;11.15;;;5.25;;
47669;SDS011;33408;52.062;11.722;2023-03-16T08:31:54;15.13;;;5.57;;
47669;SDS011;33408;52.062;11.722;2023-03-16T08:34:21;10.65;;;4.90;;
47669;SDS011;33408;52.062;11.722;2023-03-16T08:36:48;12.05;;;5.63;;
47669;SDS011;33408;52.062;11.722;2023-03-16T08:39:15;12.95;;;4.95;;
47669;SDS011;33408;52.062;11.722;2023-03-16T08:41:42;10.18;;;5.63;;
47669;SDS011;33408;52.062;11.722;2023-03-16T08:44:09;13.85;;;5.72;;
47669;SDS011;33408;52.062;11.722;2023-03-16T08:46:38;15.50;;;6.18;;
47669;SDS011;33408;52.062;11.722;2023-03-16T08:49:06;12.45;;;4.70;;
47669;SDS011;33408;52.062;11.722;2023-03-16T08:51:32;11.85;;;5.03;;
47669;SDS011;33408;52.062;11.722;2023-03-16T08:53:59;11.23;;;5.22;;
47669;SDS011;33408;52.062;11.722;2023-03-16T08:56:26;11.18;;;5.47;;
47669;SDS011;33408;52.062;11.722;2023-03-16T08:58:52;10.93;;;4.43;;
47669;SDS011;33408;52.062;11.722;2023-03-16T09:01:19;12.90;;;4.47;;
47669;SDS011;33408;52.062;11.722;2023-03-16T09:03:47;9.90;;;3.95;;
47669;SDS011;33408;52.062;11.722;2023-03-16T09:06:15;10.73;;;4.10;;
47669;SDS011;33408;52.062;11.722;2023-03-16T09:08:42;11.48;;;4.13;;
47669;SDS011;33408;52.062;11.722;2023-03-16T09:11:09;7.57;;;3.40;;
47669;SDS011;33408;52.062;11.722;2023-03-16T09:13:38;10.63;;;3.30;;
47669;SDS011;33408;52.062;11.722;2023-03-16T09:16:05;6.75;;;2.75;;
47669;SDS011;33408;52.062;11.722;2023-03-16T09:18:33;6.85;;;2.75;;
47669;SDS011;33408;52.062;11.722;2023-03-16T09:21:03;9.88;;;3.55;;
47669;SDS011;33408;52.062;11.722;2023-03-16T09:23:31;10.40;;;4.47;;
47669;SDS011;33408;52.062;11.722;2023-03-16T09:26:02;9.02;;;3.88;;
47669;SDS011;33408;52.062;11.722;2023-03-16T09:28:31;18.63;;;3.45;;
47669;SDS011;33408;52.062;11.722;2023-03-16T09:31:00;6.03;;;2.65;;
47669;SDS011;33408;52.062;11.722;2023-03-16T09:33:27;9.88;;;3.60;;
47669;SDS011;33408;52.062;11.722;2023-03-16T09:35:56;7.38;;;2.95;;
47669;SDS011;33408;52.062;11.722;2023-03-16T09:38:24;6.53;;;2.60;;
47669;SDS011;33408;52.062;11.722;2023-03-16T09:40:55;8.77;;;2.53;;
47669;SDS011;33408;52.062;11.722;2023-03-16T09:46:23;8.55;;;3.00;;
47669;SDS011;33408;52.062;11.722;2023-03-16T09:48:53;5.43;;;2.17;;
47669;SDS011;33408;52.062;11.722;2023-03-16T09:51:22;7.90;;;2.75;;
47669;SDS011;33408;52.062;11.722;2023-03-16T09:54:14;7.88;;;2.45;;
47669;SDS011;33408;52.062;11.722;2023-03-16T09:56:46;9.80;;;2.40;;
47669;SDS011;33408;52.062;11.722;2023-03-16T09:59:15;7.15;;;1.98;;
47669;SDS011;33408;52.062;11.722;2023-03-16T10:01:46;7.35;;;2.13;;
47669;SDS011;33408;52.062;11.722;2023-03-16T10:04:23;6.75;;;2.05;;
47669;SDS011;33408;52.062;11.722;2023-03-16T10:07:08;8.65;;;2.35;;
47669;SDS011;33408;52.062;11.722;2023-03-16T10:09:49;11.80;;;2.55;;
47669;SDS011;33408;52.062;11.722;2023-03-16T10:12:21;7.28;;;2.13;;
47669;SDS011;33408;52.062;11.722;2023-03-16T10:14:56;23.42;;;9.65;;
47669;SDS011;33408;52.062;11.722;2023-03-16T10:17:29;11.88;;;4.38;;
47669;SDS011;33408;52.062;11.722;2023-03-16T10:20:03;9.45;;;2.58;;
47669;SDS011;33408;52.062;11.722;2023-03-16T10:22:37;11.43;;;2.47;;
47669;SDS011;33408;52.062;11.722;2023-03-16T10:25:09;6.65;;;2.00;;
47669;SDS011;33408;52.062;11.722;2023-03-16T10:27:44;6.82;;;2.10;;
47669;SDS011;33408;52.062;11.722;2023-03-16T10:30:18;11.45;;;2.33;;
47669;SDS011;33408;52.062;11.722;2023-03-16T10:32:49;7.07;;;2.50;;
47669;SDS011;33408;52.062;11.722;2023-03-16T10:35:19;6.88;;;1.92;;
47669;SDS011;33408;52.062;11.722;2023-03-16T10:37:54;7.57;;;1.77;;
47669;SDS011;33408;52.062;11.722;2023-03-16T10:40:22;5.65;;;1.73;;
47669;SDS011;33408;52.062;11.722;2023-03-16T10:42:50;8.30;;;1.88;;
47669;SDS011;33408;52.062;11.722;2023-03-16T10:45:23;7.53;;;1.85;;
47669;SDS011;33408;52.062;11.722;2023-03-16T10:47:52;6.03;;;1.80;;
47669;SDS011;33408;52.062;11.722;2023-03-16T10:50:23;7.05;;;1.50;;
47669;SDS011;33408;52.062;11.722;2023-03-16T10:52:52;5.25;;;1.65;;
47669;SDS011;33408;52.062;11.722;2023-03-16T10:55:21;7.43;;;1.58;;
47669;SDS011;33408;52.062;11.722;2023-03-16T10:57:54;4.47;;;1.35;;
47669;SDS011;33408;52.062;11.722;2023-03-16T11:00:23;5.88;;;1.40;;
47669;SDS011;33408;52.062;11.722;2023-03-16T11:02:53;6.32;;;1.52;;
47669;SDS011;33408;52.062;11.722;2023-03-16T11:05:25;7.68;;;2.08;;
47669;SDS011;33408;52.062;11.722;2023-03-16T11:07:56;7.13;;;1.80;;
47669;SDS011;33408;52.062;11.722;2023-03-16T11:10:30;7.85;;;1.88;;
47669;SDS011;33408;52.062;11.722;2023-03-16T11:13:03;10.25;;;2.28;;
47669;SDS011;33408;52.062;11.722;2023-03-16T11:15:35;9.27;;;2.08;;
47669;SDS011;33408;52.062;11.722;2023-03-16T11:18:04;6.03;;;1.67;;
47669;SDS011;33408;52.062;11.722;2023-03-16T11:20:35;7.05;;;1.98;;
47669;SDS011;33408;52.062;11.722;2023-03-16T11:23:02;7.43;;;1.58;;
47669;SDS011;33408;52.062;11.722;2023-03-16T11:25:35;6.93;;;1.60;;
47669;SDS011;33408;52.062;11.722;2023-03-16T11:28:06;5.07;;;1.52;;
47669;SDS011;33408;52.062;11.722;2023-03-16T11:30:39;8.40;;;2.13;;
47669;SDS011;33408;52.062;11.722;2023-03-16T11:33:07;7.53;;;2.00;;
47669;SDS011;33408;52.062;11.722;2023-03-16T11:35:36;8.25;;;1.80;;
47669;SDS011;33408;52.062;11.722;2023-03-16T11:38:12;10.55;;;2.10;;
47669;SDS011;33408;52.062;11.722;2023-03-16T11:40:49;8.10;;;3.10;;
47669;SDS011;33408;52.062;11.722;2023-03-16T11:43:34;10.75;;;3.13;;
47669;SDS011;33408;52.062;11.722;2023-03-16T11:46:14;5.55;;;1.83;;
47669;SDS011;33408;52.062;11.722;2023-03-16T11:48:46;8.73;;;3.00;;
47669;SDS011;33408;52.062;11.722;2023-03-16T11:51:39;9.38;;;1.95;;
47669;SDS011;33408;52.062;11.722;2023-03-16T11:54:16;6.60;;;2.40;;
47669;SDS011;33408;52.062;11.722;2023-03-16T11:57:02;6.45;;;2.08;;
47669;SDS011;33408;52.062;11.722;2023-03-16T11:59:40;7.53;;;2.10;;
47669;SDS011;33408;52.062;11.722;2023-03-16T12:02:32;9.93;;;2.30;;
47669;SDS011;33408;52.062;11.722;2023-03-16T12:05:26;7.15;;;1.63;;
47669;SDS011;33408;52.062;11.722;2023-03-16T12:08:23;6.82;;;2.47;;
47669;SDS011;33408;52.062;11.722;2023-03-16T12:11:02;7.53;;;3.30;;
47669;SDS011;33408;52.062;11.722;2023-03-16T12:13:36;14.05;;;7.65;;
47669;SDS011;33408;52.062;11.722;2023-03-16T12:16:14;9.35;;;3.85;;
47669;SDS011;33408;52.062;11.722;2023-03-16T12:18:46;8.73;;;1.73;;
47669;SDS011;33408;52.062;11.722;2023-03-16T12:21:16;7.47;;;2.95;;
47669;SDS011;33408;52.062;11.722;2023-03-16T12:23:49;8.55;;;2.40;;
47669;SDS011;33408;52.062;11.722;2023-03-16T12:26:18;6.93;;;2.38;;
47669;SDS011;33408;52.062;11.722;2023-03-16T12:28:47;8.05;;;2.20;;
47669;SDS011;33408;52.062;11.722;2023-03-16T12:31:16;6.60;;;1.60;;
47669;SDS011;33408;52.062;11.722;2023-03-16T12:36:57;10.35;;;1.88;;
47669;SDS011;33408;52.062;11.722;2023-03-16T12:42:35;8.40;;;2.20;;
47669;SDS011;33408;52.062;11.722;2023-03-16T12:45:20;6.45;;;2.47;;
47669;SDS011;33408;52.062;11.722;2023-03-16T12:47:55;5.60;;;1.80;;
47669;SDS011;33408;52.062;11.722;2023-03-16T12:50:28;3.38;;;1.27;;
47669;SDS011;33408;52.062;11.722;2023-03-16T12:52:55;4.65;;;1.33;;
47669;SDS011;33408;52.062;11.722;2023-03-16T12:55:23;5.32;;;1.70;;
47669;SDS011;33408;52.062;11.722;2023-03-16T12:57:57;6.65;;;2.28;;
47669;SDS011;33408;52.062;11.722;2023-03-16T13:00:32;5.32;;;1.77;;
47669;SDS011;33408;52.062;11.722;2023-03-16T13:03:02;6.45;;;2.00;;
47669;SDS011;33408;52.062;11.722;2023-03-16T13:05:31;9.20;;;2.63;;
47669;SDS011;33408;52.062;11.722;2023-03-16T13:08:06;4.47;;;1.65;;
47669;SDS011;33408;52.062;11.722;2023-03-16T13:10:35;6.15;;;2.30;;
47669;SDS011;33408;52.062;11.722;2023-03-16T13:13:09;6.60;;;2.30;;
47669;SDS011;33408;52.062;11.722;2023-03-16T13:15:38;7.43;;;3.00;;
47669;SDS011;33408;52.062;11.722;2023-03-16T13:18:18;7.53;;;2.10;;
47669;SDS011;33408;52.062;11.722;2023-03-16T13:20:50;6.13;;;1.83;;
47669;SDS011;33408;52.062;11.722;2023-03-16T13:23:19;11.10;;;2.60;;
47669;SDS011;33408;52.062;11.722;2023-03-16T13:25:59;7.07;;;1.88;;
47669;SDS011;33408;52.062;11.722;2023-03-16T13:28:30;9.68;;;1.83;;
47669;SDS011;33408;52.062;11.722;2023-03-16T13:31:01;4.95;;;1.88;;
47669;SDS011;33408;52.062;11.722;2023-03-16T13:33:29;8.38;;;2.70;;
47669;SDS011;33408;52.062;11.722;2023-03-16T13:36:01;7.25;;;1.77;;
47669;SDS011;33408;52.062;11.722;2023-03-16T13:38:30;7.95;;;1.95;;
47669;SDS011;33408;52.062;11.722;2023-03-16T13:41:00;9.75;;;2.90;;
47669;SDS011;33408;52.062;11.722;2023-03-16T13:43:29;10.10;;;3.55;;
47669;SDS011;33408;52.062;11.722;2023-03-16T13:45:57;13.85;;;3.42;;
47669;SDS011;33408;52.062;11.722;2023-03-16T13:48:25;10.25;;;4.03;;
47669;SDS011;33408;52.062;11.722;2023-03-16T13:50:52;9.68;;;3.30;;
47669;SDS011;33408;52.062;11.722;2023-03-16T13:53:22;6.35;;;2.50;;
47669;SDS011;33408;52.062;11.722;2023-03-16T13:55:50;9.13;;;3.30;;
47669;SDS011;33408;52.062;11.722;2023-03-16T13:58:19;8.18;;;2.55;;
47669;SDS011;33408;52.062;11.722;2023-03-16T14:00:53;7.90;;;2.90;;
47669;SDS011;33408;52.062;11.722;2023-03-16T14:03:20;8.63;;;2.28;;
47669;SDS011;33408;52.062;11.722;2023-03-16T14:05:49;8.23;;;2.47;;
47669;SDS011;33408;52.062;11.722;2023-03-16T14:08:16;5.85;;;1.92;;
47669;SDS011;33408;52.062;11.722;2023-03-16T14:10:46;6.03;;;2.30;;
47669;SDS011;33408;52.062;11.722;2023-03-16T14:13:24;7.63;;;3.28;;
47669;SDS011;33408;52.062;11.722;2023-03-16T14:16:02;8.05;;;3.13;;
47669;SDS011;33408;52.062;11.722;2023-03-16T14:18:39;9.48;;;3.90;;
47669;SDS011;33408;52.062;11.722;2023-03-16T14:21:09;8.20;;;2.58;;
47669;SDS011;33408;52.062;11.722;2023-03-16T14:23:42;7.85;;;3.13;;
47669;SDS011;33408;52.062;11.722;2023-03-16T14:26:10;7.45;;;2.70;;
47669;SDS011;33408;52.062;11.722;2023-03-16T14:28:39;8.77;;;2.83;;
47669;SDS011;33408;52.062;11.722;2023-03-16T14:31:08;5.13;;;2.33;;
47669;SDS011;33408;52.062;11.722;2023-03-16T14:33:37;6.22;;;2.55;;
47669;SDS011;33408;52.062;11.722;2023-03-16T14:36:06;10.40;;;4.30;;
47669;SDS011;33408;52.062;11.722;2023-03-16T14:38:38;9.07;;;3.15;;
47669;SDS011;33408;52.062;11.722;2023-03-16T14:41:16;6.40;;;2.50;;
47669;SDS011;33408;52.062;11.722;2023-03-16T14:43:47;7.07;;;2.63;;
47669;SDS011;33408;52.062;11.722;2023-03-16T14:46:16;9.50;;;4.35;;
47669;SDS011;33408;52.062;11.722;2023-03-16T14:48:50;13.90;;;4.35;;
47669;SDS011;33408;52.062;11.722;2023-03-16T14:51:18;9.20;;;4.03;;
47669;SDS011;33408;52.062;11.722;2023-03-16T14:53:45;10.43;;;4.32;;
47669;SDS011;33408;52.062;11.722;2023-03-16T14:56:11;10.40;;;4.95;;